• Join FlightAware (Why Join?)
  • Login
  • US Flag 
03:15AM EST


 

Airport Tracker/Info


-or-


 

Live Flight TrackerFlight Track Log ✈ UAL1647 ✈ 04-May-2013 ✈ KSFO - KEWR

Flight Track Log - Related Links

Times and Time Zones

All times are in EDT time to prevent confusion due to time zone crossing. See the UAL1647 flight status page for this flight to view local times or setup timezone preferences in your user account.

Time Position Orientation Groundspeed Altitude Reporting Facility
EDT Latitude Longitude Course Direction KTS MPH feet Rate Location/Type
12:50PM 37.6500 -122.3500 70° East 184 212 900  Level Northern Cal TRACON
12:51PM 37.6833 -122.3000 50° Northeast 236 272 2,900 2,040 Climbing Northern Cal TRACON
12:52PM 37.6370 -122.4340 117° Southeast  Level FlightAware Approximate
12:52PM 37.7333 -122.2333 47° Northeast 271 312 5,000  Level Northern Cal TRACON
12:53PM 37.6402 -122.2894 72° East  Level FlightAware Approximate
12:53PM 37.7500 -122.1500 76° East 285 328 7,400  Level Northern Cal TRACON
12:54PM 37.6858 -122.1452 58° Northeast  Level FlightAware Approximate
12:54PM 37.7833 -122.0500 67° East 299 344 10,100  Level Northern Cal TRACON
12:55PM 37.7330 -122.0012 70° East  Level FlightAware Approximate
12:55PM 37.8097 -121.9381 73° East 300 345 12,800  Level Oakland Center
12:56PM 37.8428 -121.8258 70° East 340 391 14,100 1,680 Climbing Oakland Center
12:57PM 37.8761 -121.7050 71° East 364 419 16,300 2,160 Climbing Oakland Center
12:58PM 37.9122 -121.5800 70° East 376 433 18,600 2,100 Climbing Oakland Center
12:59PM 37.9481 -121.4564 70° East 384 442 20,600 2,040 Climbing Oakland Center
01:00PM 37.9919 -121.2975 71° East 398 458 22,800 1,800 Climbing Oakland Center
01:01PM 38.0297 -121.1647 70° East 402 463 24,300 1,320 Climbing Oakland Center
01:02PM 38.0672 -121.0264 71° East 414 476 25,600 1,260 Climbing Oakland Center
01:03PM 38.1033 -120.8842 72° East 423 487 26,900 1,140 Climbing Oakland Center
01:04PM 38.1294 -120.7342 77° East 435 501 28,000 1,020 Climbing Oakland Center
01:05PM 38.1578 -120.5819 77° East 442 509 29,100 900 Climbing Oakland Center
01:06PM 38.1847 -120.4264 78° East 453 521 29,900 600 Climbing Oakland Center
01:07PM 38.2131 -120.2658 77° East 462 532 30,400 540 Climbing Oakland Center
01:08PM 38.2428 -120.1017 77° East 474 545 31,100 960 Climbing Oakland Center
01:09PM 38.2769 -119.9011 78° East 483 556 32,400 1,080 Climbing Oakland Center
01:10PM 38.3056 -119.7358 78° East 480 552 33,300 780 Climbing Oakland Center
01:11PM 38.3344 -119.5694 77° East 481 554 34,000 480 Climbing Oakland Center
01:12PM 38.3594 -119.4100 79° East 484 557 34,400 360 Climbing Oakland Center
01:13PM 38.3881 -119.2397 78° East 492 566 34,800 240 Climbing Oakland Center
01:14PM 38.4175 -119.0669 78° East 500 575 35,000 60 Climbing Oakland Center
01:15PM 38.4511 -118.8622 78° East 496 571 35,000  Level Oakland Center
01:16PM 38.4783 -118.6936 78° East 491 565 35,000  Level Oakland Center
01:17PM 38.5056 -118.5242 78° East 490 564 35,000  Level Oakland Center
01:18PM 38.5328 -118.3550 78° East 490 564 35,000  Level Oakland Center
01:19PM 38.5592 -118.1858 79° East 488 562 35,000  Level Oakland Center
01:20PM 38.5839 -118.0239 79° East 490 564 35,000  Level Oakland Center
01:21PM 38.6103 -117.8525 79° East 490 564 35,000  Level Oakland Center
01:22PM 38.6361 -117.6778 79° East 495 570 35,000  Level Salt Lake Center
01:23PM 38.6628 -117.5044 79° East 495 570 35,000  Level Salt Lake Center
01:24PM 38.6947 -117.2944 79° East 497 572 35,000  Level Oakland Center
01:25PM 38.7142 -117.1531 80° East 499 574 35,000  Level Salt Lake Center
01:26PM 38.7403 -116.9769 79° East 500 575 35,000  Level Salt Lake Center
01:27PM 38.7664 -116.8003 79° East 501 577 35,000  Level Salt Lake Center
01:28PM 38.7914 -116.6244 80° East 500 575 35,000  Level Salt Lake Center
01:30PM 38.8217 -116.4114 80° East 504 580 35,000  Level Oakland Center
01:30PM 38.8406 -116.2706 80° East 503 579 35,000  Level Salt Lake Center
01:31PM 38.8708 -116.0572 80° East 504 580 35,000  Level Salt Lake Center
01:32PM 38.8947 -115.8789 80° East 506 582 35,000  Level Salt Lake Center
01:33PM 38.9186 -115.7025 80° East 502 578 35,000  Level Salt Lake Center
01:35PM 38.9428 -115.5242 80° East 505 581 35,000  Level Salt Lake Center
01:36PM 38.9669 -115.3400 80° East 504 580 35,000  Level Salt Lake Center
01:37PM 38.9914 -115.1614 80° East 509 586 35,000  Level Salt Lake Center
01:38PM 39.0133 -114.9839 81° East 506 582 35,000  Level Salt Lake Center
01:39PM 39.0353 -114.8061 81° East 504 580 35,000  Level Salt Lake Center
01:40PM 39.0600 -114.6247 80° East 509 586 35,000  Level Salt Lake Center
01:41PM 39.0822 -114.4469 81° East 507 583 35,000  Level Salt Lake Center
01:42PM 39.1022 -114.2708 82° East 501 577 35,000  Level Salt Lake Center
01:43PM 39.1292 -114.0569 81° East 503 579 35,000  Level Salt Lake Center
01:44PM 39.1492 -113.8789 82° East 503 579 35,000  Level Salt Lake Center
01:45PM 39.1697 -113.7006 81° East 504 580 35,000  Level Salt Lake Center
01:46PM 39.1911 -113.5211 81° East 505 581 35,000  Level Salt Lake Center
01:47PM 39.2108 -113.3433 82° East 502 578 35,000  Level Salt Lake Center
01:48PM 39.2314 -113.1625 82° East 507 583 35,000  Level Salt Lake Center
01:49PM 39.2514 -112.9819 82° East 509 586 35,000  Level Salt Lake Center
01:50PM 39.2703 -112.8022 82° East 507 583 35,000  Level Salt Lake Center
01:51PM 39.2911 -112.6139 82° East 506 582 35,000  Level Salt Lake Center
01:52PM 39.3361 -112.4042 74° East 508 585 35,000  Level Salt Lake Center
01:53PM 39.3881 -112.2358 68° East 507 583 35,000  Level Salt Lake Center
01:54PM 39.4397 -112.0661 68° East 509 586 35,000  Level Salt Lake Center
01:55PM 39.4925 -111.8972 68° East 508 585 35,000  Level Salt Lake Center
01:56PM 39.5444 -111.7283 68° East 508 585 35,000  Level Salt Lake Center
01:57PM 39.5964 -111.5572 68° East 511 588 35,000  Level Salt Lake Center
01:58PM 39.6431 -111.3847 71° East 510 587 35,000  Level Salt Lake Center
01:59PM 39.6681 -111.1703 81° East 515 593 35,000  Level Salt Lake Center
02:00PM 39.6922 -110.9986 80° East 509 586 35,000  Level Salt Lake Center
02:01PM 39.7217 -110.7972 79° East 507 583 35,000  Level Salt Lake Center
02:02PM 39.7450 -110.6247 80° East 507 583 35,000  Level Salt Lake Center
02:03PM 39.7706 -110.4228 81° East 507 583 35,000  Level Salt Lake Center
02:04PM 39.7917 -110.2503 81° East 505 581 35,000  Level Salt Lake Center
02:05PM 39.8147 -110.0781 80° East 506 582 35,000  Level Salt Lake Center
02:06PM 39.8394 -109.8761 81° East 507 583 35,000  Level Salt Lake Center
02:07PM 39.8611 -109.7028 81° East 507 583 35,000  Level Salt Lake Center
02:08PM 39.8781 -109.5569 81° East 506 582 35,000  Level Denver Center
02:09PM 39.9039 -109.3536 81° East 508 585 35,000  Level Denver Center
02:10PM 39.9250 -109.1806 81° East 505 581 35,000  Level Denver Center
02:11PM 39.9456 -109.0050 81° East 506 582 35,000  Level Denver Center
02:12PM 39.9692 -108.8011 81° East 504 580 35,000  Level Denver Center
02:13PM 39.9892 -108.6272 81° East 503 579 35,000  Level Denver Center
02:14PM 40.0083 -108.4539 82° East 502 578 35,000  Level Denver Center
02:15PM 40.0317 -108.2525 81° East 500 575 35,000  Level Denver Center
02:16PM 40.0508 -108.0800 82° East 499 574 35,000  Level Denver Center
02:17PM 40.0750 -107.8789 81° East 501 577 35,000  Level Denver Center
02:18PM 40.1167 -107.7147 72° East 498 573 35,000  Level Denver Center
02:19PM 40.1542 -107.5483 74° East 498 573 35,000  Level Denver Center
02:21PM 40.1986 -107.3550 73° East 498 573 35,000  Level Denver Center
02:22PM 40.2367 -107.1881 73° East 498 573 35,000  Level Denver Center
02:23PM 40.2794 -106.9950 74° East 497 572 35,000  Level Denver Center
02:24PM 40.3181 -106.8281 73° East 496 571 35,000  Level Denver Center
02:25PM 40.3567 -106.6539 74° East 495 570 35,000  Level Denver Center
02:26PM 40.3967 -106.4714 74° East 493 567 35,000  Level Denver Center
02:27PM 40.4322 -106.3064 74° East 492 566 35,000  Level Denver Center
02:28PM 40.4719 -106.1214 74° East 492 566 35,000  Level Denver Center
02:29PM 40.5097 -105.9472 74° East 490 564 35,000  Level Denver Center
02:30PM 40.5450 -105.7750 75° East 486 559 35,000  Level Denver Center
02:31PM 40.5817 -105.6025 74° East 485 558 35,000  Level Denver Center
02:32PM 40.6175 -105.4317 75° East 479 551 35,000  Level Denver Center
02:33PM 40.6517 -105.2611 75° East 477 549 35,000  Level Denver Center
02:34PM 40.6864 -105.0925 75° East 472 543 35,000  Level Denver Center
02:35PM 40.7267 -104.8969 75° East 471 542 35,000  Level Denver Center
02:36PM 40.7608 -104.7264 75° East 473 544 35,000  Level Denver Center
02:37PM 40.7997 -104.5311 75° East 468 539 35,000  Level Denver Center
02:38PM 40.8328 -104.3636 75° East 466 536 35,000  Level Denver Center
02:39PM 40.8650 -104.1969 76° East 464 534 35,000  Level Denver Center
02:40PM 40.8986 -104.0325 75° East 460 529 35,000  Level Denver Center
02:41PM 40.9294 -103.8697 76° East 454 522 35,000  Level Denver Center
02:42PM 40.9608 -103.7064 76° East 451 519 35,000  Level Denver Center
02:43PM 40.9914 -103.5422 76° East 450 518 35,000  Level Denver Center
02:44PM 41.0253 -103.3631 76° East 451 519 35,000  Level Denver Center
02:45PM 41.0547 -103.2083 76° East 451 519 35,000  Level Denver Center
02:46PM 41.0878 -103.0289 76° East 452 520 35,000  Level Denver Center
02:47PM 41.1042 -102.8856 81° East 445 512 35,000  Level Denver Center
02:48PM 41.1181 -102.7039 84° East 443 510 35,000  Level Denver Center
02:49PM 41.1300 -102.5469 84° East 444 511 35,000  Level Denver Center
02:50PM 41.1433 -102.3642 84° East 446 513 35,000  Level Denver Center
02:51PM 41.1553 -102.2086 84° East 442 509 35,000  Level Denver Center
02:53PM 41.1661 -102.0539 85° East 440 506 35,000  Level Denver Center
02:54PM 41.1808 -101.8736 84° East 440 506 35,000  Level Denver Center
02:55PM 41.1919 -101.7211 84° East 435 501 35,000  Level Denver Center
02:56PM 41.2033 -101.5422 85° East 435 501 35,000  Level Denver Center
02:57PM 41.2142 -101.3886 85° East 436 502 35,000  Level Denver Center
02:58PM 41.2247 -101.2350 85° East 434 499 35,000  Level Denver Center
02:59PM 41.2350 -101.0542 86° East 437 503 35,000  Level Denver Center
03:00PM 41.2458 -100.8986 85° East 439 505 35,000  Level Denver Center
03:01PM 41.2556 -100.7414 85° East 442 509 35,000  Level Denver Center
03:02PM 41.2664 -100.5594 85° East 440 506 35,000  Level Denver Center
03:03PM 41.2747 -100.4075 86° East 432 497 35,000  Level Denver Center
03:04PM 41.2858 -100.2292 85° East 432 497 35,000  Level Denver Center
03:05PM 41.2933 -100.0764 86° East 433 498 35,000  Level Denver Center
03:06PM 41.3022 -99.9236 86° East 432 497 35,000  Level Denver Center
03:07PM 41.3136 -99.7242 86° East 425 489 35,000  Level Denver Center
03:08PM 41.3211 -99.5736 86° East 425 489 35,000  Level Denver Center
03:09PM 41.3289 -99.4156 86° East 424 488 35,000  Level Denver Center
03:10PM 41.3364 -99.2586 86° East 422 486 35,000  Level Denver Center
03:11PM 41.3436 -99.1006 86° East 424 488 35,000  Level Denver Center
03:12PM 41.3525 -98.9100 86° East 425 489 35,000  Level Denver Center
03:13PM 41.3583 -98.7539 87° East 426 490 35,000  Level Minneapolis Center
03:14PM 41.3653 -98.5956 87° East 428 493 35,000  Level Minneapolis Center
03:15PM 41.3731 -98.4264 86° East 432 497 35,000  Level Minneapolis Center
03:16PM 41.3789 -98.2639 87° East 435 501 35,000  Level Minneapolis Center
03:17PM 41.3842 -98.1014 87° East 437 503 35,000  Level Minneapolis Center
03:18PM 41.3889 -97.9508 88° East 436 502 35,000  Level Minneapolis Center
03:19PM 41.3933 -97.7892 88° East 437 503 35,000  Level Minneapolis Center
03:20PM 41.3975 -97.6275 88° East 438 504 35,000  Level Minneapolis Center
03:21PM 41.4033 -97.4339 88° East 436 502 35,000  Level Minneapolis Center
03:22PM 41.4075 -97.2711 88° East 438 504 35,000  Level Minneapolis Center
03:23PM 41.4111 -97.1097 88° East 437 503 35,000  Level Minneapolis Center
03:24PM 41.4142 -96.9478 89° East 436 502 35,000 120 Level Minneapolis Center
03:26PM 41.4169 -96.7853 89° East 438 504 35,300 480 Climbing Minneapolis Center
03:27PM 41.4208 -96.6203 88° East 445 512 36,100 780 Climbing Minneapolis Center
03:28PM 41.4242 -96.4569 88° East 442 509 37,000 420 Climbing Minneapolis Center
03:29PM 41.4261 -96.2819 89° East 438 504 37,000  Level Minneapolis Center
03:30PM 41.4278 -96.1222 89° East 433 498 37,000  Level Minneapolis Center
03:31PM 41.4306 -95.9617 89° East 432 497 37,000  Level Minneapolis Center
03:32PM 41.4328 -95.8031 89° East 428 493 37,000  Level Minneapolis Center
03:33PM 41.4336 -95.6311 90° East 427 491 37,000  Level Minneapolis Center
03:34PM 41.4356 -95.4872 89° East 426 490 37,000  Level Minneapolis Center
03:35PM 41.4411 -95.3317 87° East 422 486 37,000  Level Minneapolis Center
03:36PM 41.4611 -95.1464 82° East 421 484 37,000  Level Minneapolis Center
03:37PM 41.4747 -94.9903 83° East 423 487 37,000  Level Minneapolis Center
03:38PM 41.4889 -94.8353 83° East 422 486 37,000  Level Minneapolis Center
03:39PM 41.5033 -94.6803 83° East 422 486 37,000  Level Minneapolis Center
03:40PM 41.5169 -94.5258 83° East 420 483 37,000  Level Minneapolis Center
03:41PM 41.5303 -94.3733 83° East 415 478 37,000  Level Minneapolis Center
03:42PM 41.5442 -94.2144 83° East 418 481 37,000  Level Minneapolis Center
03:43PM 41.5553 -94.0633 84° East 414 476 37,000  Level Minneapolis Center
03:44PM 41.5686 -93.9097 83° East 417 480 37,000  Level Minneapolis Center
03:45PM 41.5808 -93.7539 84° East 421 484 37,000  Level Minneapolis Center
03:46PM 41.5961 -93.5681 84° East 422 486 37,000  Level Minneapolis Center
03:47PM 41.6094 -93.4139 83° East 420 483 37,000  Level Minneapolis Center
03:48PM 41.6214 -93.2586 84° East 421 484 37,000  Level Minneapolis Center
03:49PM 41.6331 -93.1047 84° East 419 482 37,000  Level Minneapolis Center
03:50PM 41.6439 -92.9539 84° East 413 475 37,000  Level Minneapolis Center
03:51PM 41.6547 -92.8019 84° East 412 474 37,000  Level Minneapolis Center
03:52PM 41.6653 -92.6522 85° East 409 471 37,000  Level Minneapolis Center
03:53PM 41.6700 -92.5894 84° East 405 466 37,000  Level Chicago Center
03:54PM 41.6831 -92.4100 84° East 407 468 37,000  Level Chicago Center
03:55PM 41.6931 -92.2603 85° East 407 468 37,000  Level Chicago Center
03:56PM 41.7028 -92.1086 85° East 411 473 37,000  Level Chicago Center
03:57PM 41.7128 -91.9611 85° East 408 470 37,000  Level Chicago Center
03:58PM 41.7225 -91.8128 85° East 407 468 37,000  Level Chicago Center
03:59PM 41.7336 -91.6333 85° East 407 468 37,000  Level Chicago Center
04:00PM 41.7425 -91.4850 85° East 406 467 37,000  Level Chicago Center
04:01PM 41.7525 -91.3344 85° East 409 471 37,000  Level Chicago Center
04:02PM 41.7600 -91.1856 86° East 407 468 37,000  Level Chicago Center
04:03PM 41.7689 -91.0342 85° East 412 474 37,000  Level Chicago Center
04:04PM 41.7775 -90.8833 86° East 411 473 37,000  Level Chicago Center
04:05PM 41.7872 -90.7011 86° East 413 475 37,000  Level Chicago Center
04:06PM 41.7953 -90.5492 86° East 413 475 37,000  Level Chicago Center
04:07PM 41.8039 -90.3961 86° East 415 478 37,000  Level Chicago Center
04:08PM 41.8114 -90.2436 86° East 416 479 37,000  Level Chicago Center
04:09PM 41.8197 -90.0917 86° East 415 478 37,000  Level Chicago Center
04:10PM 41.8283 -89.9047 86° East 414 476 37,000  Level Chicago Center
04:11PM 41.8353 -89.7539 86° East 410 472 37,000  Level Chicago Center
04:12PM 41.8411 -89.6047 87° East 406 467 37,000  Level Chicago Center
04:13PM 41.8492 -89.4519 86° East 412 474 37,000  Level Chicago Center
04:14PM 41.8550 -89.3019 87° East 407 468 37,000  Level Chicago Center
04:15PM 41.8589 -89.1556 88° East 399 459 37,000  Level Chicago Center
04:16PM 41.8667 -88.9750 87° East 403 464 37,000  Level Chicago Center
04:17PM 41.8722 -88.8256 87° East 403 464 37,000  Level Chicago Center
04:18PM 41.8778 -88.6739 87° East 406 467 37,000  Level Chicago Center
04:19PM 41.8828 -88.5217 87° East 409 471 37,000  Level Chicago Center
04:20PM 41.8883 -88.3692 87° East 410 472 37,000  Level Chicago Center
04:21PM 41.8939 -88.2156 87° East 411 473 37,000  Level Chicago Center
04:22PM 41.8989 -88.0611 87° East 413 475 37,000  Level Chicago Center
04:23PM 41.9036 -87.9086 88° East 409 471 37,000  Level Chicago Center
04:24PM 41.9083 -87.7267 88° East 408 470 37,000  Level Chicago Center
04:25PM 41.9125 -87.5750 88° East 407 468 37,000  Level Chicago Center
04:27PM 41.9164 -87.4247 88° East 405 466 37,000  Level Chicago Center
04:28PM 41.9200 -87.2733 88° East 406 467 37,000  Level Chicago Center
04:29PM 41.9225 -87.1222 89° East 407 468 37,000  Level Chicago Center
04:30PM 41.9261 -86.9708 88° East 409 471 37,000  Level Chicago Center
04:31PM 41.9297 -86.8200 88° East 407 468 37,000  Level Chicago Center
04:32PM 41.9333 -86.6442 88° East 406 467 37,000  Level Chicago Center
04:33PM 41.9350 -86.4922 89° East 408 470 37,000  Level Chicago Center
04:34PM 41.9375 -86.3386 89° East 412 474 37,000  Level Chicago Center
04:35PM 41.9408 -86.1856 88° East 412 474 37,000  Level Chicago Center
04:36PM 41.9425 -86.0294 89° East 416 479 37,000  Level Chicago Center
04:37PM 41.9450 -85.8753 89° East 415 478 37,000  Level Chicago Center
04:38PM 41.9469 -85.7197 89° East 415 478 37,000  Level Chicago Center
04:39PM 41.9489 -85.5325 89° East 414 476 37,000  Level Chicago Center
04:40PM 41.9511 -85.3753 89° East 415 478 37,000  Level Chicago Center
04:41PM 41.9511 -85.2186 90° East 416 479 37,000  Level Chicago Center
04:42PM 41.9508 -85.0622 90° East 416 479 37,000  Level Chicago Center
04:43PM 41.9506 -84.9064 90° East 416 479 37,000  Level Chicago Center
04:44PM 41.9500 -84.7500 90° East 417 480 37,000  Level Chicago Center
04:45PM 41.9483 -84.5950 91° East 416 479 37,000  Level Chicago Center
04:46PM 41.9481 -84.4394 90° East 416 479 37,000  Level Chicago Center
04:47PM 41.9461 -84.2847 91° East 415 478 37,000  Level Chicago Center
04:48PM 41.9408 -84.1175 92° East 414 476 37,000  Level Cleveland Center
04:49PM 41.9392 -83.9639 91° East 414 476 37,000  Level Cleveland Center
04:50PM 41.9356 -83.8072 92° East 414 476 37,000  Level Cleveland Center
04:51PM 41.9333 -83.6564 91° East 409 471 37,000  Level Cleveland Center
04:52PM 41.9353 -83.5031 89° East 409 471 37,000  Level Cleveland Center
04:53PM 41.9333 -83.3325 91° East 409 471 37,000  Level Cleveland Center
04:54PM 41.9303 -83.1928 92° East 409 471 37,000  Level Cleveland Center
04:55PM 41.9294 -83.0364 90° East 409 471 37,000  Level Cleveland Center
04:56PM 41.9306 -82.8831 89° East 409 471 37,000  Level Cleveland Center
04:57PM 41.9275 -82.7239 91° East 414 476 37,000  Level Cleveland Center
04:58PM 41.9261 -82.5675 91° East 414 476 37,000  Level Cleveland Center
04:59PM 41.9244 -82.4111 91° East 414 476 37,000  Level Cleveland Center
05:00PM 41.9250 -82.2519 90° East 419 482 37,000  Level Cleveland Center
05:01PM 41.9228 -82.0986 91° East 419 482 37,000  Level Cleveland Center
05:02PM 41.9186 -81.9422 92° East 425 489 37,000  Level Cleveland Center
05:03PM 41.9119 -81.7858 93° East 425 489 37,000  Level Cleveland Center
05:04PM 41.8989 -81.6292 96° East 425 489 37,000  Level Cleveland Center
05:05PM 41.8856 -81.4728 96° East 425 489 37,000  Level Cleveland Center
05:06PM 41.8700 -81.3053 97° East 425 489 37,000  Level Cleveland Center
05:07PM 41.8544 -81.1464 97° East 425 489 37,000  Level Cleveland Center
05:08PM 41.8406 -80.9872 97° East 431 496 37,000  Level Cleveland Center
05:09PM 41.8242 -80.8311 98° East 431 496 37,000 -300 Level Cleveland Center
05:10PM 41.8097 -80.6722 97° East 431 496 36,400 -600 Descending Cleveland Center
05:11PM 41.7931 -80.5053 98° East 431 496 35,900 -720 Descending Cleveland Center
05:12PM 41.7764 -80.3436 98° East 436 502 35,000 -480 Descending Cleveland Center
05:13PM 41.7614 -80.1933 98° East 450 518 35,000  Level Cleveland Center
05:14PM 41.7439 -80.0267 98° East 456 525 35,000  Level Cleveland Center
05:15PM 41.7264 -79.8597 98° East 456 525 35,000  Level Cleveland Center
05:16PM 41.7083 -79.6903 98° East 456 525 35,000  Level Cleveland Center
05:17PM 41.6903 -79.5069 97° East 456 525 35,000  Level Cleveland Center
05:18PM 41.6719 -79.3378 98° East 456 525 35,000  Level Cleveland Center
05:19PM 41.6531 -79.1658 98° East 461 531 35,000  Level Cleveland Center
05:20PM 41.6342 -78.9967 98° East 461 531 35,000  Level Cleveland Center
05:21PM 41.6150 -78.8278 99° East 466 536 35,000  Level Cleveland Center
05:22PM 41.5958 -78.6644 99° East 461 531 35,000 -120 Level Cleveland Center
05:23PM 41.5761 -78.4958 99° East 461 531 34,800 -600 Descending Cleveland Center
05:24PM 41.5564 -78.3300 99° East 461 531 33,900 -900 Descending Cleveland Center
05:25PM 41.5397 -78.1881 99° East 454 522 33,100 -960 Descending New York Center
05:26PM 41.5186 -78.0222 100° East 447 514 32,100 -960 Descending New York Center
05:27PM 41.4956 -77.8533 100° East 452 520 31,200 -600 Descending New York Center
05:28PM 41.4739 -77.6906 100° East 452 520 31,000 -120 Descending New York Center
05:29PM 41.4481 -77.5244 102° East 452 520 31,000  Level New York Center
05:31PM 41.4031 -77.2072 101° East 452 520 31,000  Level New York Center
05:32PM 41.3786 -77.0444 101° East 452 520 31,000 -540 Level New York Center
05:33PM 41.3536 -76.8819 102° East 452 520 30,000 -1,560 Descending New York Center
05:34PM 41.3242 -76.7272 104° East 441 507 27,900 -2,100 Descending New York Center
05:35PM 41.2853 -76.5858 110° East 427 491 25,800 -2,340 Descending New York Center
05:36PM 41.2428 -76.4331 110° East 409 471 23,300 -2,220 Descending New York Center
05:37PM 41.2056 -76.2947 110° East 398 458 21,400 -1,440 Descending New York Center
05:38PM 41.1717 -76.1681 110° East 387 445 20,500 -960 Descending New York Center
05:39PM 41.1400 -76.0414 108° East 371 427 19,500 -1,140 Descending New York Center
05:40PM 41.1056 -75.9203 111° Southeast 358 412 18,300 -1,380 Descending New York Center
05:41PM 41.0753 -75.8025 109° East 347 399 16,800 -1,800 Descending New York Center
05:42PM 41.0464 -75.6986 110° East 336 387 14,800 -1,980 Descending New York Center
05:43PM 41.0156 -75.5836 110° East 336 387 12,900 -900 Descending New York Center
05:44PM 40.9808 -75.4656 111° Southeast 326 375 13,000 -120 Climbing New York Center
05:45PM 40.9497 -75.3564 111° Southeast 321 369 12,700 -1,020 Descending New York Center
05:46PM 40.9183 -75.2497 111° Southeast 316 364 11,000 -1,380 Descending New York Center
05:47PM 40.8931 -75.1467 108° East 305 351 10,100 -1,020 Descending New York Center
05:48PM 40.8689 -75.0656 111° Southeast 275 316 9,000 -1,260 Descending New York Center
05:49PM 40.8431 -74.9761 111° Southeast 269 310 7,600 -1,020 Descending New York Center
05:50PM 40.8064 -74.8889 119° Southeast 262 302 7,000 -540 Descending New York Center
05:51PM 40.7714 -74.8156 122° Southeast 255 293 6,600 -540 Descending New York Center
05:52PM 40.7450 -74.7372 114° Southeast 233 268 6,000 -300 Descending New York Center
05:53PM 40.7639 -74.6672 70° East 201 231 6,000  Level New York Center
05:54PM 40.7975 -74.5950 58° Northeast 207 238 6,000 -360 Level New York Center
05:55PM 40.8247 -74.5333 60° Northeast 217 250 5,400 -540 Descending New York Center
05:56PM 40.8561 -74.4556 62° Northeast 217 250 5,000 -240 Descending New York Center
05:57PM 40.8789 -74.3936 64° Northeast 217 250 5,000 -60 Level New York Center
05:58PM 40.8900 -74.3064 80° East 212 244 4,900 -540 Descending New York Center
05:59PM 40.9003 -74.2383 79° East 212 244 4,000 -720 Descending New York Center
05:59PM 40.9000 -74.2000 91° East 218 251 4,000 -360 Level New York TRACON
06:00PM 40.8833 -74.1333 108° East 221 254 3,600 -540 Descending New York TRACON
06:01PM 40.8333 -74.0833 143° Southeast 212 244 3,000 -840 Descending New York TRACON
06:02PM 40.8000 -74.1000 201° Southwest 209 241 2,100 -1,020 Descending New York TRACON
06:03PM 40.7500 -74.1333 207° Southwest 172 198 1,100 -1,020 Descending New York TRACON